首页
METAR-TAF:

METAR-TAF

机场 :

赤塔, 俄罗斯

赤塔機場

纬度: 52-05N, 经度: 113-29E, 海拔: 685米

当前天气观测

该预报发布于11分钟前的00:00 UTC
风速2节,风向
温度 -26°C
湿度 76%
气压 1018 hPa
能見度: 7000
少量云层高于500英尺

METAR: UIAA 250000Z 10001MPS 7000 FEW005 M26/M29 Q1018 R29/810165 NOSIG RMK QBB160 MT OBSC QFE705/0940

时间: 09:11 (00:11 UTC)

预报

该预报发布于1小时和11分钟前的23:00 UTC
预报有效从25日的 00点(UTC)到 25日的 24点(UTC)
风速6节,风向
能见度10公里或以上

TAF: UIAA 242300Z 2500/2524 35003MPS 9999 NSC

超过4000个机场的气象观测和天气预报(METAR&TAF报告)。

可查询的气象台以黄色和红色小点在地图上表示。

将鼠标移到小点上方,可查看气象台名称。

然后点击查看天气观测和预报。

如需切换地图:点击带黑十字的绿色按钮放大地图;点击带横线的绿色按钮缩小地图;或者点击绿色箭头查看邻近地区的地图。


METAR-TAF: